Time;durP1;ratioP1;P1;durP2;ratioP2;P2;SDS_P1;SDS_P2;PMS_P1;PMS_P2;Temp;Humidity;BMP_temperature;BMP_pressure;BME280_temperature;BME280_humidity;BME280_pressure;Samples;Min_cycle;Max_cycle;Signal;HPM_P1;HPM_P2
2022/07/31 00:02:25;;;;;;;6.55;2.90;;;;;;;20.42;100.00;99561.70;1740373;81;21078;-67
2022/07/31 00:04:52;;;;;;;5.35;2.95;;;;;;;20.41;100.00;99555.36;1736563;81;20991;-66
2022/07/31 00:07:18;;;;;;;5.80;3.27;;;;;;;20.38;100.00;99552.47;1752606;80;21067;-66
2022/07/31 00:09:44;;;;;;;5.22;3.05;;;;;;;20.32;100.00;99548.56;1753628;81;21082;-66
2022/07/31 00:12:11;;;;;;;4.80;2.60;;;;;;;20.30;100.00;99551.41;1753940;80;21603;-67
2022/07/31 00:14:38;;;;;;;6.45;3.05;;;;;;;20.33;100.00;99550.75;1716346;83;21035;-68
2022/07/31 00:17:05;;;;;;;4.65;3.00;;;;;;;20.31;100.00;99541.97;1745668;81;21118;-67
2022/07/31 00:19:31;;;;;;;5.35;3.22;;;;;;;20.27;100.00;99547.38;1753177;81;21470;-67
2022/07/31 00:21:58;;;;;;;4.85;2.87;;;;;;;20.22;100.00;99543.42;1752649;81;21043;-67
2022/07/31 00:24:25;;;;;;;5.05;3.22;;;;;;;20.22;100.00;99538.47;1735754;82;21429;-66
2022/07/31 00:26:52;;;;;;;5.55;2.90;;;;;;;20.21;100.00;99532.12;1749435;80;21464;-67
2022/07/31 00:29:18;;;;;;;5.17;3.00;;;;;;;20.16;100.00;99535.09;1748373;81;21022;-67
2022/07/31 00:31:45;;;;;;;6.55;3.02;;;;;;;20.11;100.00;99535.32;1713525;82;21094;-67
2022/07/31 00:34:11;;;;;;;6.10;2.85;;;;;;;20.05;100.00;99533.89;1753288;80;21007;-68
2022/07/31 00:36:38;;;;;;;6.65;3.42;;;;;;;20.02;100.00;99532.38;1747678;80;21146;-66
2022/07/31 00:39:05;;;;;;;3.65;2.70;;;;;;;20.03;100.00;99533.44;1749565;81;21006;-65
2022/07/31 00:41:40;;;;;;;4.78;3.25;;;;;;;20.00;100.00;99524.45;1754265;80;21039;-67
2022/07/31 00:44:07;;;;;;;6.28;3.17;;;;;;;19.93;100.00;99532.48;1720207;82;21008;-66
2022/07/31 00:46:33;;;;;;;5.67;2.98;;;;;;;19.88;100.00;99531.28;1751718;81;21047;-66
2022/07/31 00:48:59;;;;;;;3.98;3.10;;;;;;;19.89;100.00;99534.30;1753060;81;20982;-68
2022/07/31 00:51:26;;;;;;;6.70;3.12;;;;;;;19.90;100.00;99524.87;1752117;81;21066;-66
2022/07/31 00:53:53;;;;;;;9.65;3.30;;;;;;;19.85;100.00;99529.20;1752624;81;21009;-67
2022/07/31 00:56:19;;;;;;;6.95;2.83;;;;;;;19.80;100.00;99522.52;1750579;81;21613;-67
2022/07/31 00:58:46;;;;;;;6.35;3.30;;;;;;;19.78;100.00;99524.80;1753358;81;21579;-67
2022/07/31 01:01:12;;;;;;;5.00;3.08;;;;;;;19.79;100.00;99518.14;1751642;80;21055;-66
2022/07/31 01:03:39;;;;;;;8.03;3.20;;;;;;;19.77;100.00;99523.17;1754408;82;21039;-67
2022/07/31 01:06:05;;;;;;;5.78;2.80;;;;;;;19.71;100.00;99528.11;1743798;82;21485;-67
2022/07/31 01:08:32;;;;;;;5.97;3.17;;;;;;;19.66;100.00;99536.58;1714459;82;21054;-67
2022/07/31 01:11:24;;;;;;;5.75;2.90;;;;;;;19.62;100.00;99529.33;1715583;83;21534;-66
2022/07/31 01:14:00;;;;;;;5.30;3.55;;;;;;;19.63;100.00;99533.11;1716586;82;21054;-66
2022/07/31 01:16:30;;;;;;;5.15;2.98;;;;;;;19.61;100.00;99524.94;1716177;82;21088;-68
2022/07/31 01:18:56;;;;;;;5.80;3.40;;;;;;;19.53;100.00;99523.05;1712886;82;21059;-68
2022/07/31 01:23:39;;;;;;;5.17;3.60;;;;;;;19.45;100.00;99522.55;1812028;78;22812;-66
2022/07/31 01:26:44;;;;;;;7.15;3.22;;;;;;;19.36;100.00;99521.19;1740434;79;21370;-66
2022/07/31 01:29:25;;;;;;;7.25;3.52;;;;;;;19.34;100.00;99527.03;1749859;81;21026;-67
2022/07/31 01:32:09;;;;;;;6.85;3.40;;;;;;;19.25;100.00;99513.87;1742015;81;21042;-67
2022/07/31 01:34:44;;;;;;;8.38;3.47;;;;;;;19.15;100.00;99518.97;1740288;81;20974;-65
2022/07/31 01:37:22;;;;;;;8.28;3.25;;;;;;;19.11;100.00;99519.39;1739318;81;21043;-66
2022/07/31 01:39:53;;;;;;;4.85;3.15;;;;;;;19.11;100.00;99520.77;1749367;81;22176;-65
2022/07/31 01:42:20;;;;;;;5.50;3.20;;;;;;;19.10;100.00;99520.52;1744040;81;21054;-67
2022/07/31 01:44:51;;;;;;;5.70;3.27;;;;;;;19.07;100.00;99522.00;1745007;81;20975;-67
2022/07/31 01:47:19;;;;;;;5.97;3.80;;;;;;;19.04;100.00;99522.67;1737590;81;21074;-67
2022/07/31 01:49:48;;;;;;;6.87;3.60;;;;;;;18.97;100.00;99516.87;1747937;81;21445;-66
2022/07/31 01:52:15;;;;;;;6.92;3.40;;;;;;;18.96;100.00;99518.00;1751534;81;21601;-67
2022/07/31 01:54:42;;;;;;;6.30;3.45;;;;;;;18.97;100.00;99514.11;1749023;81;21011;-68
2022/07/31 01:57:08;;;;;;;5.45;3.47;;;;;;;18.98;100.00;99507.47;1733968;81;21213;-65
2022/07/31 01:59:37;;;;;;;9.40;3.40;;;;;;;18.98;100.00;99518.50;1745350;81;21062;-66
2022/07/31 02:02:05;;;;;;;5.10;3.67;;;;;;;18.97;100.00;99516.06;1755975;81;21047;-67
2022/07/31 02:04:32;;;;;;;6.58;3.80;;;;;;;18.92;100.00;99518.42;1742143;81;21054;-67
2022/07/31 02:07:00;;;;;;;6.25;3.77;;;;;;;18.90;100.00;99519.34;1737094;81;21038;-66
2022/07/31 02:09:27;;;;;;;6.50;3.47;;;;;;;18.89;100.00;99519.91;1745418;81;21498;-67
2022/07/31 02:11:53;;;;;;;5.92;3.25;;;;;;;18.87;100.00;99519.44;1710189;81;21425;-66
2022/07/31 02:14:20;;;;;;;6.50;3.50;;;;;;;18.85;100.00;99522.27;1737422;81;21010;-67
2022/07/31 02:16:48;;;;;;;5.80;3.27;;;;;;;18.85;100.00;99521.70;1734582;81;21054;-66
2022/07/31 02:19:16;;;;;;;6.62;3.95;;;;;;;18.83;100.00;99519.05;1741458;81;21039;-66
2022/07/31 02:21:43;;;;;;;6.47;3.65;;;;;;;18.78;100.00;99528.30;1716236;82;21058;-66
2022/07/31 02:24:11;;;;;;;6.75;3.20;;;;;;;18.75;100.00;99525.40;1732628;82;20991;-67
2022/07/31 02:26:38;;;;;;;14.28;3.70;;;;;;;18.77;100.00;99530.03;1730411;82;21019;-67
2022/07/31 02:29:06;;;;;;;7.25;3.33;;;;;;;18.75;100.00;99535.87;1734525;82;21471;-67
2022/07/31 02:31:32;;;;;;;5.62;3.50;;;;;;;18.75;100.00;99536.43;1738405;82;21026;-67
2022/07/31 02:33:58;;;;;;;6.97;3.52;;;;;;;18.76;100.00;99535.30;1702308;83;21901;-67
2022/07/31 02:36:26;;;;;;;5.42;4.08;;;;;;;18.76;100.00;99543.00;1743510;82;21102;-67
2022/07/31 02:38:53;;;;;;;6.58;3.58;;;;;;;18.76;100.00;99545.77;1724500;82;21090;-67
2022/07/31 02:41:20;;;;;;;5.30;3.70;;;;;;;18.72;100.00;99543.98;1701947;82;21539;-67
2022/07/31 02:43:46;;;;;;;9.53;3.65;;;;;;;18.72;100.00;99546.74;1734205;82;21042;-67
2022/07/31 02:46:14;;;;;;;6.10;3.65;;;;;;;18.75;100.00;99552.41;1740187;82;21039;-67
2022/07/31 02:48:41;;;;;;;5.95;3.50;;;;;;;18.77;100.00;99550.72;1735023;82;21042;-67
2022/07/31 02:51:09;;;;;;;5.33;3.85;;;;;;;18.77;100.00;99547.39;1741367;82;21083;-67
2022/07/31 02:53:36;;;;;;;5.25;3.33;;;;;;;18.78;100.00;99554.50;1740433;82;21468;-66
2022/07/31 02:56:05;;;;;;;6.92;3.62;;;;;;;18.78;100.00;99550.94;1735115;82;21014;-66
2022/07/31 02:58:33;;;;;;;6.90;3.50;;;;;;;18.75;100.00;99552.97;1737607;82;21015;-67
2022/07/31 03:01:04;;;;;;;4.72;3.30;;;;;;;18.76;100.00;99550.47;1740127;82;21554;-67
2022/07/31 03:03:31;;;;;;;5.75;3.22;;;;;;;18.79;100.00;99551.99;1732715;82;21050;-68
2022/07/31 03:05:58;;;;;;;6.50;3.80;;;;;;;18.82;100.00;99547.75;1726825;82;21415;-67
2022/07/31 03:08:26;;;;;;;7.58;3.60;;;;;;;18.82;100.00;99546.38;1736205;82;21062;-67
2022/07/31 03:10:54;;;;;;;6.35;3.58;;;;;;;18.81;100.00;99555.81;1728640;82;20983;-66
2022/07/31 03:13:24;;;;;;;5.35;3.27;;;;;;;18.82;100.00;99548.57;1729804;82;21510;-67
2022/07/31 03:15:50;;;;;;;4.95;3.35;;;;;;;18.90;100.00;99551.06;1737902;82;21020;-67
2022/07/31 03:18:18;;;;;;;6.03;3.35;;;;;;;18.96;100.00;99548.34;1737155;82;21525;-67
2022/07/31 03:20:44;;;;;;;5.95;3.25;;;;;;;19.02;100.00;99544.28;1734990;82;21442;-68
2022/07/31 03:23:11;;;;;;;5.00;3.17;;;;;;;19.06;100.00;99552.11;1722221;82;21074;-67
2022/07/31 03:25:41;;;;;;;6.12;3.50;;;;;;;19.08;100.00;99552.60;1735591;82;21443;-67
2022/07/31 03:28:08;;;;;;;5.50;3.42;;;;;;;19.11;100.00;99549.17;1738535;82;21083;-68
2022/07/31 03:30:35;;;;;;;7.67;3.60;;;;;;;19.19;100.00;99551.65;1732077;82;21008;-68
2022/07/31 03:33:02;;;;;;;6.08;3.67;;;;;;;19.27;100.00;99552.18;1728082;81;21628;-68
2022/07/31 03:35:29;;;;;;;6.65;3.70;;;;;;;19.31;100.00;99550.34;1725397;82;21012;-67
2022/07/31 03:37:56;;;;;;;5.83;3.20;;;;;;;19.31;100.00;99551.16;1725603;82;21031;-67
2022/07/31 03:40:23;;;;;;;8.93;3.65;;;;;;;19.38;100.00;99540.97;1742815;82;21059;-68
2022/07/31 03:42:50;;;;;;;3.90;3.00;;;;;;;19.44;100.00;99542.44;1727076;82;21102;-67
2022/07/31 03:45:17;;;;;;;6.25;3.50;;;;;;;19.47;100.00;99543.15;1735900;82;20999;-67
2022/07/31 03:47:44;;;;;;;6.12;3.15;;;;;;;19.47;100.00;99538.20;1713110;82;21058;-66
2022/07/31 03:50:10;;;;;;;8.28;3.33;;;;;;;19.47;100.00;99534.05;1728275;82;21023;-68
2022/07/31 03:52:37;;;;;;;4.55;3.27;;;;;;;19.51;100.00;99530.86;1727308;82;21506;-66
2022/07/31 03:55:03;;;;;;;6.92;3.08;;;;;;;19.61;100.00;99531.84;1711469;82;20967;-66
2022/07/31 03:57:31;;;;;;;6.67;3.22;;;;;;;19.73;100.00;99534.08;1732699;82;21070;-66
2022/07/31 03:59:57;;;;;;;7.25;3.50;;;;;;;19.95;100.00;99534.31;1737195;82;20948;-67
2022/07/31 04:02:26;;;;;;;7.90;3.37;;;;;;;20.21;100.00;99527.98;1742927;81;21051;-67
2022/07/31 04:04:54;;;;;;;5.00;2.95;;;;;;;20.46;100.00;99528.08;1731200;82;20984;-66
2022/07/31 04:07:23;;;;;;;6.15;3.15;;;;;;;20.72;100.00;99525.27;1723377;82;21090;-67
2022/07/31 04:09:50;;;;;;;3.65;2.98;;;;;;;20.98;100.00;99517.19;1739551;82;21051;-68
2022/07/31 04:12:17;;;;;;;5.40;2.65;;;;;;;21.14;100.00;99514.81;1741090;82;21143;-66
2022/07/31 04:14:43;;;;;;;4.30;2.92;;;;;;;21.32;100.00;99513.42;1733886;82;21541;-65
2022/07/31 04:17:11;;;;;;;6.58;2.77;;;;;;;21.58;100.00;99508.84;1730829;82;21063;-67
2022/07/31 04:19:38;;;;;;;5.83;2.60;;;;;;;21.76;100.00;99503.83;1733475;82;21593;-67
2022/07/31 04:22:04;;;;;;;6.30;2.60;;;;;;;21.90;100.00;99500.12;1728193;82;21094;-67
2022/07/31 04:24:32;;;;;;;7.33;2.55;;;;;;;22.05;100.00;99493.02;1727960;82;21510;-68
2022/07/31 04:27:03;;;;;;;4.40;2.60;;;;;;;22.24;100.00;99494.55;1736007;82;21055;-67
2022/07/31 04:29:40;;;;;;;7.65;2.30;;;;;;;22.43;100.00;99485.52;1729427;82;21519;-67
2022/07/31 04:32:07;;;;;;;6.05;2.40;;;;;;;22.65;100.00;99494.05;1719237;82;21043;-66
2022/07/31 04:34:44;;;;;;;3.35;2.15;;;;;;;23.06;100.00;99494.09;1704935;82;21003;-67
2022/07/31 04:37:10;;;;;;;4.33;1.98;;;;;;;23.06;100.00;99494.09;1735199;82;21042;-66
2022/07/31 04:39:37;;;;;;;5.97;2.20;;;;;;;23.31;100.00;99482.98;1733375;82;20944;-66
2022/07/31 04:42:04;;;;;;;4.25;2.20;;;;;;;23.33;100.00;99484.59;1743862;82;21059;-68
2022/07/31 04:44:31;;;;;;;4.87;2.25;;;;;;;23.24;100.00;99487.56;1731986;82;21517;-66
2022/07/31 04:47:04;;;;;;;3.95;2.33;;;;;;;23.08;100.00;99486.80;1732505;82;21091;-67
2022/07/31 04:49:32;;;;;;;3.98;2.33;;;;;;;22.93;100.00;99492.59;1737795;82;20987;-67
2022/07/31 04:51:59;;;;;;;6.00;2.47;;;;;;;22.74;100.00;99492.53;1734969;82;21060;-67
2022/07/31 04:54:26;;;;;;;4.60;2.10;;;;;;;22.67;100.00;99489.57;1720825;82;21035;-68
2022/07/31 04:56:53;;;;;;;4.25;2.02;;;;;;;22.61;100.00;99490.95;1734010;82;21046;-66
2022/07/31 04:59:21;;;;;;;6.40;2.10;;;;;;;22.63;100.00;99492.22;1720040;83;21015;-67
2022/07/31 05:01:47;;;;;;;5.50;2.42;;;;;;;22.63;100.00;99488.06;1731204;82;21955;-67
2022/07/31 05:04:16;;;;;;;3.77;2.10;;;;;;;22.61;100.00;99486.79;1737479;80;21059;-67
2022/07/31 05:06:48;;;;;;;3.75;2.33;;;;;;;22.61;100.00;99486.79;1728920;82;21621;-67
2022/07/31 05:09:17;;;;;;;5.67;2.60;;;;;;;22.63;100.00;99492.22;1725531;80;21050;-68
2022/07/31 05:11:47;;;;;;;4.50;1.90;;;;;;;22.76;100.00;99494.34;1708429;83;21011;-68
2022/07/31 05:14:15;;;;;;;6.25;2.17;;;;;;;22.76;100.00;99494.34;1696697;82;21023;-67
2022/07/31 05:16:42;;;;;;;3.72;1.90;;;;;;;22.80;100.00;99494.67;1727064;82;21047;-68
2022/07/31 05:19:08;;;;;;;4.15;1.62;;;;;;;22.80;100.00;99494.67;1734228;82;20968;-68
2022/07/31 05:21:53;;;;;;;3.60;1.82;;;;;;;22.95;100.00;99500.57;1735819;82;21140;-68
2022/07/31 05:24:22;;;;;;;6.85;2.30;;;;;;;23.33;100.00;99498.48;1740323;81;21043;-68
2022/07/31 05:26:59;;;;;;;6.95;2.40;;;;;;;23.54;100.00;99497.60;1732247;82;21095;-68
2022/07/31 05:29:26;;;;;;;3.65;1.82;;;;;;;23.54;100.00;99497.60;1666327;84;21054;-67
2022/07/31 05:31:52;;;;;;;5.17;1.82;;;;;;;23.71;100.00;99495.20;1665340;85;21072;-67
2022/07/31 05:34:19;;;;;;;6.47;1.80;;;;;;;24.00;100.00;99497.98;1723646;82;21082;-67
2022/07/31 05:36:45;;;;;;;4.10;1.82;;;;;;;24.32;100.00;99495.05;1733930;82;21577;-66
2022/07/31 05:39:13;;;;;;;7.40;2.35;;;;;;;24.69;100.00;99498.92;1721156;82;21003;-67
2022/07/31 05:41:39;;;;;;;4.90;2.40;;;;;;;24.95;100.00;99496.20;1733081;82;21110;-67
2022/07/31 05:44:24;;;;;;;5.85;2.37;;;;;;;25.11;100.00;99496.88;1725792;82;21035;-67
2022/07/31 05:46:51;;;;;;;3.98;2.00;;;;;;;25.21;100.00;99487.88;1733932;82;21012;-66
2022/07/31 05:49:18;;;;;;;8.63;4.00;;;;;;;25.38;100.00;99484.31;1727490;82;21039;-66
2022/07/31 05:51:52;;;;;;;3.77;1.60;;;;;;;25.51;100.00;99480.14;1725628;82;21118;-66
2022/07/31 05:54:15;;;;;;;6.70;1.90;;;;;;;25.65;100.00;99467.79;1722453;82;21078;-68
2022/07/31 05:56:59;;;;;;;8.55;4.80;;;;;;;25.85;100.00;99475.42;1731690;82;21546;-67
2022/07/31 05:59:34;;;;;;;5.42;1.42;;;;;;;25.93;100.00;99465.97;1741782;82;21078;-67
2022/07/31 06:02:00;;;;;;;7.03;2.98;;;;;;;25.94;98.83;99459.19;1730827;82;21134;-66
2022/07/31 06:04:27;;;;;;;4.30;1.80;;;;;;;26.01;100.00;99460.08;1741395;82;21498;-66
2022/07/31 06:06:53;;;;;;;6.15;1.82;;;;;;;26.22;100.00;99464.52;1731118;82;21622;-68
2022/07/31 06:09:20;;;;;;;4.78;1.05;;;;;;;26.50;94.92;99459.81;1728580;82;21074;-67
2022/07/31 06:19:32;;;;;;;;;;;;;;;27.20;74.43;99449.84;1805297;78;22596;-65
2022/07/31 06:21:59;;;;;;;2.85;0.80;;;;;;;27.11;74.40;99450.77;1748716;80;20130;-65
2022/07/31 06:24:28;;;;;;;2.45;0.70;;;;;;;27.07;74.65;99456.92;1716534;82;21055;-65
2022/07/31 06:26:59;;;;;;;2.52;0.60;;;;;;;27.19;73.24;99453.02;1737281;82;21545;-65
2022/07/31 06:29:26;;;;;;;3.42;0.75;;;;;;;27.30;69.66;99450.29;1735975;82;21003;-65
2022/07/31 06:31:54;;;;;;;2.83;0.70;;;;;;;27.47;71.36;99449.02;1734901;82;21586;-66
2022/07/31 06:34:22;;;;;;;6.37;0.90;;;;;;;27.67;66.24;99449.50;1725452;82;20987;-66
2022/07/31 06:36:48;;;;;;;1.82;0.60;;;;;;;27.75;65.11;99439.15;1705832;82;21621;-66
2022/07/31 06:39:17;;;;;;;2.50;0.65;;;;;;;27.81;65.83;99449.55;1736410;82;21085;-67
2022/07/31 06:41:45;;;;;;;2.02;0.80;;;;;;;27.97;64.36;99438.03;1730507;82;21038;-66
2022/07/31 06:44:27;;;;;;;3.62;0.80;;;;;;;28.04;66.00;99440.26;1738658;82;21014;-67
2022/07/31 06:47:06;;;;;;;3.00;0.90;;;;;;;28.24;64.40;99430.13;1743474;82;21715;-68
2022/07/31 06:49:51;;;;;;;1.45;0.80;;;;;;;28.41;63.85;99427.97;1729837;82;21015;-68
2022/07/31 06:52:17;;;;;;;3.30;0.60;;;;;;;28.50;60.63;99431.16;1733973;82;21482;-68
2022/07/31 06:54:44;;;;;;;5.50;0.80;;;;;;;28.50;59.35;99436.77;1739731;81;21019;-68
2022/07/31 06:57:11;;;;;;;3.42;0.95;;;;;;;28.57;61.98;99442.38;1730854;82;21047;-65
2022/07/31 06:59:37;;;;;;;4.85;0.80;;;;;;;28.69;60.09;99424.41;1736686;82;21007;-67
2022/07/31 07:02:04;;;;;;;3.27;0.80;;;;;;;28.85;62.06;99431.79;1736892;82;21109;-67
2022/07/31 07:04:31;;;;;;;4.05;0.90;;;;;;;29.05;60.48;99433.77;1736604;82;21007;-68
2022/07/31 07:06:58;;;;;;;3.35;0.70;;;;;;;28.75;100.00;99429.20;1731454;82;21035;-67
2022/07/31 07:09:24;;;;;;;1.85;0.78;;;;;;;27.16;100.00;99429.45;1721479;82;21052;-67
2022/07/31 07:11:51;;;;;;;2.42;0.80;;;;;;;26.08;100.00;99425.88;1733194;82;21498;-67
2022/07/31 07:14:17;;;;;;;5.17;1.45;;;;;;;25.65;100.00;99429.58;1727826;82;21050;-66
2022/07/31 07:16:44;;;;;;;2.15;0.88;;;;;;;25.60;100.00;99423.55;1735142;82;21094;-66
2022/07/31 07:19:10;;;;;;;4.22;0.80;;;;;;;25.69;100.00;99410.91;1742132;81;21018;-66
2022/07/31 07:21:37;;;;;;;3.27;0.95;;;;;;;25.89;100.00;99416.32;1748486;81;21488;-66
2022/07/31 07:24:04;;;;;;;3.27;0.60;;;;;;;26.13;100.00;99412.41;1728462;81;21620;-66
2022/07/31 07:26:36;;;;;;;3.30;1.05;;;;;;;26.37;98.07;99411.64;1736432;81;21081;-66
2022/07/31 07:29:03;;;;;;;2.75;0.85;;;;;;;26.52;87.64;99414.19;1735925;81;21073;-67
2022/07/31 07:31:31;;;;;;;3.45;1.00;;;;;;;26.63;91.86;99404.51;1733853;81;21106;-65
2022/07/31 07:33:57;;;;;;;1.52;0.70;;;;;;;26.73;84.22;99410.77;1738272;81;21532;-66
2022/07/31 07:36:25;;;;;;;2.72;0.70;;;;;;;26.87;81.94;99402.52;1744043;81;21121;-66
2022/07/31 07:38:53;;;;;;;3.80;0.80;;;;;;;27.02;80.86;99404.81;1743094;81;21050;-67
2022/07/31 07:41:20;;;;;;;4.40;1.05;;;;;;;27.19;79.19;99406.91;1742027;81;21035;-66
2022/07/31 07:43:46;;;;;;;2.27;0.68;;;;;;;27.35;76.62;99403.81;1686840;84;21647;-68
2022/07/31 07:46:13;;;;;;;3.62;0.70;;;;;;;27.49;74.20;99396.92;1706264;83;21585;-66
2022/07/31 07:48:42;;;;;;;2.05;0.70;;;;;;;27.60;69.65;99395.75;1685302;84;21093;-67
2022/07/31 07:51:13;;;;;;;2.77;0.80;;;;;;;27.68;68.47;99397.98;1676385;84;21095;-67
2022/07/31 07:53:44;;;;;;;4.60;0.98;;;;;;;27.79;69.10;99398.02;1697509;83;21678;-67
2022/07/31 07:56:13;;;;;;;1.98;0.90;;;;;;;28.01;66.52;99401.88;1685772;83;21120;-66
2022/07/31 07:58:58;;;;;;;2.10;0.82;;;;;;;28.04;62.92;99408.08;1688204;84;21025;-67
2022/07/31 08:01:35;;;;;;;3.20;0.85;;;;;;;28.02;62.01;99397.87;1655170;83;21077;-65
2022/07/31 08:04:04;;;;;;;1.45;0.85;;;;;;;28.12;65.33;99399.95;1682411;83;21038;-67
2022/07/31 08:06:31;;;;;;;3.15;1.10;;;;;;;28.28;61.05;99402.94;1683746;84;21094;-67
2022/07/31 08:08:57;;;;;;;4.25;1.15;;;;;;;28.45;59.01;99392.39;1697365;83;21561;-66
2022/07/31 08:11:33;;;;;;;2.53;0.83;;;;;;;28.55;57.01;99394.38;1650735;84;21105;-66
2022/07/31 08:14:08;;;;;;;2.98;0.98;;;;;;;28.69;54.88;99392.20;1712821;83;21564;-66
2022/07/31 08:16:41;;;;;;;2.65;0.80;;;;;;;28.83;54.25;99390.19;1684073;83;21119;-67
2022/07/31 08:19:08;;;;;;;3.35;0.90;;;;;;;28.94;52.53;99390.98;1686458;84;21038;-66
2022/07/31 08:21:35;;;;;;;2.30;0.88;;;;;;;29.02;53.64;99391.14;1669854;85;21097;-65
2022/07/31 08:24:01;;;;;;;2.72;0.98;;;;;;;29.19;51.73;99387.31;1697331;83;21540;-66
2022/07/31 08:27:22;;;;;;;4.08;0.80;;;;;;;29.33;51.60;99385.90;1712259;83;21089;-67
2022/07/31 08:28:59;;;;;;;2.98;0.90;;;;;;;29.53;51.18;99380.00;1682446;85;21678;-68
2022/07/31 08:31:26;;;;;;;1.87;0.72;;;;;;;29.75;50.50;99373.09;1689078;84;21667;-68
2022/07/31 08:33:57;;;;;;;1.57;0.80;;;;;;;29.88;50.95;99367.83;1686616;83;21031;-67
2022/07/31 08:36:24;;;;;;;3.27;0.85;;;;;;;30.08;49.76;99376.71;1693156;84;21058;-67
2022/07/31 08:38:51;;;;;;;4.35;1.00;;;;;;;30.20;49.40;99367.02;1683187;84;21100;-66
2022/07/31 08:41:38;;;;;;;3.67;0.88;;;;;;;30.34;50.61;99371.72;1607653;87;21098;-67
2022/07/31 08:44:05;;;;;;;1.92;0.80;;;;;;;30.47;49.18;99368.02;1705471;81;21053;-67
2022/07/31 08:46:37;;;;;;;4.20;1.95;;;;;;;30.54;49.00;99368.56;1736094;81;21043;-67
2022/07/31 08:49:06;;;;;;;4.05;0.98;;;;;;;30.58;48.07;99367.33;1737965;81;21082;-67
2022/07/31 08:51:37;;;;;;;3.58;1.15;;;;;;;30.63;47.79;99363.28;1736503;81;21034;-67
2022/07/31 08:54:17;;;;;;;2.53;0.90;;;;;;;30.67;47.07;99366.86;1697361;81;21046;-68
2022/07/31 08:56:45;;;;;;;2.70;0.98;;;;;;;30.70;47.76;99356.80;1750845;81;21066;-68
2022/07/31 08:59:15;;;;;;;4.10;0.90;;;;;;;30.76;46.67;99357.94;1741183;81;21604;-69
2022/07/31 09:01:40;;;;;;;3.50;0.78;;;;;;;30.81;47.16;99356.09;1733518;81;21569;-69
2022/07/31 09:04:06;;;;;;;4.15;1.05;;;;;;;30.90;47.22;99342.34;1730863;81;21078;-67
2022/07/31 09:06:35;;;;;;;3.98;0.93;;;;;;;31.03;46.70;99342.05;1737213;81;21076;-69
2022/07/31 09:09:02;;;;;;;5.17;1.05;;;;;;;31.20;45.40;99342.44;1711618;81;21098;-67
2022/07/31 09:11:30;;;;;;;4.45;0.95;;;;;;;31.28;44.65;99338.95;1747617;81;21035;-66
2022/07/31 09:14:09;;;;;;;3.85;0.90;;;;;;;31.27;42.65;99335.94;1748405;81;21023;-68
2022/07/31 09:16:47;;;;;;;4.65;1.02;;;;;;;31.16;44.04;99333.85;1734165;81;21014;-67
2022/07/31 09:19:14;;;;;;;6.45;1.00;;;;;;;31.18;44.12;99334.25;1731807;81;21039;-68
2022/07/31 09:21:43;;;;;;;3.98;0.95;;;;;;;31.03;43.24;99332.20;1713988;82;21066;-67
2022/07/31 09:24:13;;;;;;;3.50;0.80;;;;;;;30.88;43.59;99330.13;1715176;82;21091;-67
2022/07/31 09:26:39;;;;;;;2.47;0.90;;;;;;;30.77;43.51;99332.24;1716839;82;21046;-67
2022/07/31 09:29:10;;;;;;;3.00;1.10;;;;;;;30.60;42.38;99327.00;1714782;82;20992;-67
2022/07/31 09:31:36;;;;;;;3.95;0.90;;;;;;;30.39;42.58;99333.38;1727917;82;21511;-68
2022/07/31 09:34:27;;;;;;;5.75;1.00;;;;;;;30.16;42.79;99331.16;1715083;82;21052;-67
2022/07/31 09:36:58;;;;;;;3.60;1.07;;;;;;;29.98;44.00;99322.86;1715443;82;21051;-67
2022/07/31 09:39:50;;;;;;;2.47;0.90;;;;;;;29.87;42.92;99317.92;1661606;82;21193;-69
2022/07/31 09:42:39;;;;;;;3.92;0.90;;;;;;;29.77;44.09;99328.58;1720022;82;21075;-69
2022/07/31 09:45:22;;;;;;;3.60;1.10;;;;;;;29.59;44.31;99325.08;1712626;82;21051;-67
2022/07/31 09:48:11;;;;;;;2.98;0.90;;;;;;;29.45;43.95;99321.75;1719856;82;21558;-68
2022/07/31 09:50:36;;;;;;;3.12;0.98;;;;;;;29.38;45.86;99310.57;1723820;82;21020;-68
2022/07/31 09:53:05;;;;;;;4.87;1.00;;;;;;;29.38;45.22;99313.38;1722664;82;21055;-68
2022/07/31 09:55:32;;;;;;;2.52;0.90;;;;;;;29.30;45.91;99310.40;1721998;82;21115;-68
2022/07/31 09:58:00;;;;;;;3.60;1.00;;;;;;;29.25;47.16;99304.40;1721862;82;21549;-67
2022/07/31 10:00:31;;;;;;;2.95;0.80;;;;;;;29.27;48.14;99307.61;1723163;82;21511;-68
2022/07/31 10:02:58;;;;;;;3.67;0.90;;;;;;;29.26;45.60;99302.64;1716077;82;21019;-68
2022/07/31 10:05:26;;;;;;;2.12;0.90;;;;;;;29.27;45.36;99307.61;1683597;82;21119;-68
2022/07/31 10:07:56;;;;;;;2.50;1.05;;;;;;;29.27;44.34;99297.80;1706486;82;21554;-68
2022/07/31 10:10:25;;;;;;;3.90;1.10;;;;;;;29.21;45.48;99306.41;1726075;82;21031;-68
2022/07/31 10:12:54;;;;;;;5.58;2.67;;;;;;;29.20;45.15;99307.61;1714270;82;21055;-66
2022/07/31 10:15:22;;;;;;;5.75;2.10;;;;;;;29.19;45.00;99290.63;1717739;82;21452;-68
2022/07/31 10:17:51;;;;;;;2.92;1.07;;;;;;;29.23;45.04;99297.02;1720619;82;21016;-68
2022/07/31 10:20:34;;;;;;;2.67;1.32;;;;;;;29.26;43.81;99294.23;1734833;82;21660;-67
2022/07/31 10:23:15;;;;;;;3.67;1.12;;;;;;;29.27;45.75;99286.59;1728195;82;21086;-68
2022/07/31 10:25:49;;;;;;;3.50;1.02;;;;;;;29.30;43.68;99290.00;1751945;82;21043;-67
2022/07/31 10:28:16;;;;;;;4.58;1.20;;;;;;;29.30;44.53;99293.58;1730164;82;21027;-68
2022/07/31 10:30:45;;;;;;;4.30;1.12;;;;;;;29.34;44.06;99280.95;1728997;82;21046;-68
2022/07/31 10:33:11;;;;;;;3.95;1.15;;;;;;;29.31;44.62;99278.97;1725808;82;21019;-68
2022/07/31 10:35:58;;;;;;;4.15;1.30;;;;;;;29.29;44.60;99278.59;1732384;82;21179;-70
2022/07/31 10:39:06;;;;;;;4.20;1.15;;;;;;;29.30;44.80;99278.80;1623796;88;21122;-68
2022/07/31 10:41:52;;;;;;;3.87;1.15;;;;;;;29.32;45.06;99281.97;1628542;88;21731;-68
2022/07/31 10:44:31;;;;;;;5.28;1.07;;;;;;;29.30;45.08;99275.98;1676454;82;20983;-67
2022/07/31 10:47:15;;;;;;;3.33;1.00;;;;;;;29.30;44.60;99275.98;1728055;82;21066;-68
2022/07/31 10:49:48;;;;;;;3.05;1.00;;;;;;;29.29;45.37;99277.98;1728836;82;21039;-68
2022/07/31 10:52:35;;;;;;;3.65;1.02;;;;;;;29.32;45.15;99265.15;1731125;82;21063;-69
2022/07/31 10:55:28;;;;;;;2.08;1.10;;;;;;;29.32;43.55;99272.96;1723797;82;21558;-69
2022/07/31 10:58:12;;;;;;;3.70;1.10;;;;;;;29.32;43.45;99266.55;1709840;82;21035;-68
2022/07/31 11:01:07;;;;;;;3.65;1.30;;;;;;;29.31;44.63;99283.17;1732076;82;21067;-68
2022/07/31 11:03:45;;;;;;;4.78;1.25;;;;;;;29.32;44.52;99273.56;1722451;83;21030;-68
2022/07/31 11:06:20;;;;;;;4.15;1.40;;;;;;;29.33;44.31;99268.16;1736471;82;21672;-67
2022/07/31 11:08:54;;;;;;;4.47;0.82;;;;;;;29.39;43.60;99271.52;1727819;82;21050;-68
2022/07/31 11:11:39;;;;;;;3.10;1.02;;;;;;;29.40;41.86;99270.33;1725019;82;21063;-68
2022/07/31 11:14:10;;;;;;;5.08;1.57;;;;;;;29.40;42.04;99270.33;1721714;82;21585;-67
2022/07/31 11:16:54;;;;;;;3.15;1.12;;;;;;;29.48;41.91;99276.06;1722452;82;21086;-68
2022/07/31 11:19:24;;;;;;;6.17;1.40;;;;;;;29.49;41.11;99261.45;1718074;82;21086;-69
2022/07/31 11:21:53;;;;;;;4.00;1.02;;;;;;;29.49;40.37;99259.45;1700168;82;21051;-69
2022/07/31 11:24:21;;;;;;;2.55;1.00;;;;;;;29.44;39.89;99264.06;1717860;82;21110;-69
2022/07/31 11:26:55;;;;;;;2.83;1.00;;;;;;;29.42;40.54;99260.09;1715211;82;21137;-67
2022/07/31 11:29:31;;;;;;;3.00;1.20;;;;;;;29.41;39.21;99253.67;1725743;82;21000;-69
2022/07/31 11:32:13;;;;;;;1.55;0.70;;;;;;;29.42;38.86;99261.48;1728457;82;21548;-69
2022/07/31 11:34:52;;;;;;;3.80;1.00;;;;;;;29.36;39.10;99256.13;1721769;82;21514;-67
2022/07/31 11:37:29;;;;;;;2.98;0.90;;;;;;;29.34;40.21;99257.92;1735270;82;21031;-66
2022/07/31 11:39:55;;;;;;;2.05;0.98;;;;;;;29.36;40.92;99247.11;1718454;82;21640;-66
2022/07/31 11:42:23;;;;;;;4.67;0.93;;;;;;;29.40;40.33;99251.30;1705174;82;21051;-67
2022/07/31 11:44:50;;;;;;;2.25;1.10;;;;;;;29.44;41.93;99247.88;1710162;82;21092;-67
2022/07/31 11:47:16;;;;;;;2.40;1.10;;;;;;;29.47;41.39;99247.05;1731536;82;21062;-67
2022/07/31 11:49:42;;;;;;;2.65;0.80;;;;;;;29.52;41.23;99252.20;1712147;82;21046;-67
2022/07/31 11:52:11;;;;;;;3.50;0.98;;;;;;;29.55;40.60;99242.97;1719622;82;21063;-67
2022/07/31 11:54:38;;;;;;;5.55;0.90;;;;;;;29.59;40.37;99239.55;1721851;82;21070;-68